createdAt,value
2022-08-14T00:01:11.470Z,101383.22
2022-08-14T00:03:42.364Z,101377.91
2022-08-14T00:06:25.763Z,101384.19
2022-08-14T00:08:59.115Z,101377.94
2022-08-14T00:11:32.287Z,101377.03
2022-08-14T00:14:02.842Z,101382.41
2022-08-14T00:16:41.199Z,101369.91
2022-08-14T00:19:19.245Z,101374.34
2022-08-14T00:21:50.688Z,101368.13
2022-08-14T00:24:28.093Z,101372.69
2022-08-14T00:27:03.292Z,101367.34
2022-08-14T00:29:40.291Z,101370.97
2022-08-14T00:32:52.811Z,101367.44
2022-08-14T00:35:03.580Z,101366.63
2022-08-14T00:37:34.722Z,101367.56
2022-08-14T00:40:27.366Z,101359.53
2022-08-14T00:42:58.456Z,101350.63
2022-08-14T00:45:30.538Z,101342.56
2022-08-14T00:48:01.271Z,101352.44
2022-08-14T00:50:32.107Z,101335.47
2022-08-14T00:53:04.197Z,101339.09
2022-08-14T00:55:35.935Z,101335.47
2022-08-14T00:58:32.492Z,101328.34
2022-08-14T01:01:05.089Z,101340.88
2022-08-14T01:03:42.418Z,101331.03
2022-08-14T01:06:18.511Z,101333.72
2022-08-14T01:08:52.301Z,101332.84
2022-08-14T01:11:31.499Z,101333.72
2022-08-14T01:14:04.956Z,101322.06
2022-08-14T01:16:55.467Z,101318.47
2022-08-14T01:19:38.440Z,101318.47
2022-08-14T01:22:18.486Z,101314.94
2022-08-14T01:24:50.993Z,101308.69
2022-08-14T01:27:24.158Z,101311.38
2022-08-14T01:30:03.235Z,101307.78
2022-08-14T01:32:51.083Z,101307.78
2022-08-14T01:36:03.991Z,101309.56
2022-08-14T01:38:16.565Z,101301.50
2022-08-14T01:40:49.629Z,101306.91
2022-08-14T01:43:21.991Z,101300.69
2022-08-14T01:46:06.165Z,101303.41
2022-08-14T01:48:37.870Z,101297.16
2022-08-14T01:51:18.707Z,101293.59
2022-08-14T01:53:55.912Z,101290.94
2022-08-14T01:56:37.369Z,101292.69
2022-08-14T01:59:18.231Z,101288.25
2022-08-14T02:01:58.509Z,101285.56
2022-08-14T02:04:40.703Z,101286.44
2022-08-14T02:07:34.397Z,101285.56
2022-08-14T02:10:18.091Z,101287.38
2022-08-14T02:12:57.412Z,101277.56
2022-08-14T02:15:28.304Z,101280.25
2022-08-14T02:18:01.666Z,101281.16
2022-08-14T02:20:34.167Z,101269.56
2022-08-14T02:23:05.872Z,101269.59
2022-08-14T02:25:41.197Z,101268.75
2022-08-14T02:28:21.991Z,101258.94
2022-08-14T02:30:55.935Z,101260.75
2022-08-14T02:33:29.370Z,101253.59
2022-08-14T02:36:25.831Z,101253.63
2022-08-14T02:38:53.793Z,101255.38
2022-08-14T02:41:28.634Z,101248.25
2022-08-14T02:44:00.951Z,101249.19
2022-08-14T02:46:33.857Z,101245.66
2022-08-14T02:49:06.222Z,101238.53
2022-08-14T02:51:37.156Z,101245.69
2022-08-14T02:54:07.930Z,101243.00
2022-08-14T02:57:15.356Z,101245.72
2022-08-14T02:59:33.747Z,101243.97
2022-08-14T03:02:05.069Z,101232.41
2022-08-14T03:04:35.288Z,101234.22
2022-08-14T03:07:07.126Z,101229.75
2022-08-14T03:09:42.137Z,101229.78
2022-08-14T03:12:32.857Z,101223.59
2022-08-14T03:15:14.442Z,101219.13
2022-08-14T03:17:57.133Z,101212.94
2022-08-14T03:20:28.459Z,101217.41
2022-08-14T03:23:03.137Z,101209.38
2022-08-14T03:25:37.690Z,101209.41
2022-08-14T03:28:14.765Z,101200.50
2022-08-14T03:31:02.700Z,101207.63
2022-08-14T03:33:37.913Z,101199.56
2022-08-14T03:37:39.532Z,101203.13
2022-08-14T03:39:15.647Z,101200.47
2022-08-14T03:41:52.565Z,101201.38
2022-08-14T03:45:19.481Z,101188.84
2022-08-14T03:47:15.597Z,101187.94
2022-08-14T03:49:49.981Z,101179.91
2022-08-14T03:52:38.879Z,101186.19
2022-08-14T03:55:12.388Z,101187.06
2022-08-14T03:57:44.454Z,101176.34
2022-08-14T04:00:40.331Z,101171.91
2022-08-14T04:03:09.954Z,101171.03
2022-08-14T04:05:48.475Z,101172.78
2022-08-14T04:08:22.920Z,101171.91
2022-08-14T04:11:01.532Z,101171.94
2022-08-14T04:13:33.968Z,101182.69
2022-08-14T04:16:12.350Z,101175.56
2022-08-14T04:18:43.726Z,101167.56
2022-08-14T04:21:13.861Z,101176.50
2022-08-14T04:23:45.733Z,101172.06
2022-08-14T04:26:42.882Z,101170.28
2022-08-14T04:29:15.440Z,101166.75
2022-08-14T04:33:01.503Z,101169.38
2022-08-14T04:34:42.518Z,101166.75
2022-08-14T04:37:45.541Z,101167.63
2022-08-14T04:40:29.025Z,101162.31
2022-08-14T04:43:14.288Z,101159.63
2022-08-14T04:45:51.313Z,101157.81
2022-08-14T04:48:38.712Z,101147.94
2022-08-14T04:51:14.640Z,101153.16
2022-08-14T04:53:46.143Z,101159.16
2022-08-14T04:56:31.172Z,101158.91
2022-08-14T04:59:10.158Z,101153.25
2022-08-14T05:01:45.170Z,101158.22
2022-08-14T05:04:21.402Z,101160.44
2022-08-14T05:06:53.530Z,101157.31
2022-08-14T05:09:24.678Z,101153.22
2022-08-14T05:13:01.024Z,101157.25
2022-08-14T05:14:55.131Z,101155.81
2022-08-14T05:17:32.198Z,101152.50
2022-08-14T05:21:10.771Z,101156.28
2022-08-14T05:23:08.041Z,101152.00
2022-08-14T05:25:40.973Z,101155.22
2022-08-14T05:28:14.178Z,101145.72
2022-08-14T05:30:46.453Z,101152.59
2022-08-14T05:33:17.291Z,101151.59
2022-08-14T05:35:51.104Z,101164.09
2022-08-14T05:38:30.677Z,101153.34
2022-08-14T05:41:01.110Z,101162.97
2022-08-14T05:43:40.968Z,101148.16
2022-08-14T05:46:15.213Z,101156.19
2022-08-14T05:48:45.508Z,101144.91
2022-08-14T05:51:18.650Z,101145.03
2022-08-14T05:54:00.345Z,101148.59
2022-08-14T05:56:38.282Z,101148.56
2022-08-14T05:59:08.585Z,101137.69
2022-08-14T06:01:38.777Z,101144.25
2022-08-14T06:04:09.363Z,101139.50
2022-08-14T06:06:44.912Z,101137.53
2022-08-14T06:09:14.721Z,101134.38
2022-08-14T06:11:44.933Z,101123.94
2022-08-14T06:14:23.803Z,101124.03
2022-08-14T06:16:53.989Z,101121.13
2022-08-14T06:19:23.855Z,101120.69
2022-08-14T06:21:59.357Z,101119.28
2022-08-14T06:24:30.654Z,101117.94
2022-08-14T06:27:06.254Z,101113.88
2022-08-14T06:29:40.238Z,101104.47
2022-08-14T06:32:36.800Z,101110.25
2022-08-14T06:35:11.123Z,101110.44
2022-08-14T06:37:48.954Z,101115.19
2022-08-14T06:40:28.028Z,101104.81
2022-08-14T06:43:00.506Z,101107.03
2022-08-14T06:45:33.627Z,101102.03
2022-08-14T06:48:06.287Z,101105.25
2022-08-14T06:50:42.754Z,101102.06
2022-08-14T06:53:20.042Z,101099.94
2022-08-14T06:55:58.452Z,101107.88
2022-08-14T06:58:33.157Z,101103.38
2022-08-14T07:01:17.049Z,101100.59
2022-08-14T07:04:02.789Z,101097.31
2022-08-14T07:06:45.597Z,101107.03
2022-08-14T07:09:22.608Z,101094.59
2022-08-14T07:11:53.559Z,101091.56
2022-08-14T07:14:23.425Z,101096.56
2022-08-14T07:16:53.135Z,101091.66
2022-08-14T07:19:23.889Z,101097.34
2022-08-14T07:21:54.694Z,101090.47
2022-08-14T07:24:31.358Z,101093.38
2022-08-14T07:27:01.551Z,101090.84
2022-08-14T07:29:31.343Z,101087.75
2022-08-14T07:32:01.101Z,101093.75
2022-08-14T07:34:40.550Z,101092.28
2022-08-14T07:37:11.184Z,101093.47
2022-08-14T07:39:44.046Z,101089.44
2022-08-14T07:42:14.260Z,101092.75
2022-08-14T07:44:50.615Z,101094.50
2022-08-14T07:47:20.860Z,101088.47
2022-08-14T07:50:04.366Z,101088.69
2022-08-14T07:52:34.496Z,101095.28
2022-08-14T07:55:08.108Z,101088.19
2022-08-14T07:57:38.563Z,101085.75
2022-08-14T08:00:30.992Z,101083.41
2022-08-14T08:03:03.115Z,101078.13
2022-08-14T08:05:33.897Z,101082.69
2022-08-14T08:08:05.014Z,101086.38
2022-08-14T08:11:02.408Z,101069.84
2022-08-14T08:13:39.340Z,101075.84
2022-08-14T08:16:10.583Z,101065.44
2022-08-14T08:18:41.850Z,101059.19
2022-08-14T08:21:13.223Z,101067.31
2022-08-14T08:23:50.959Z,101061.59
2022-08-14T08:26:24.255Z,101068.50
2022-08-14T08:28:59.696Z,101066.44
2022-08-14T08:31:33.088Z,101060.66
2022-08-14T08:34:07.700Z,101062.00
2022-08-14T08:36:46.739Z,101056.50
2022-08-14T08:39:22.444Z,101050.91
2022-08-14T08:41:55.889Z,101053.97
2022-08-14T08:44:34.452Z,101057.53
2022-08-14T08:47:06.744Z,101050.25
2022-08-14T08:49:59.066Z,101040.91
2022-08-14T08:52:31.925Z,101045.28
2022-08-14T08:55:04.630Z,101032.00
2022-08-14T08:57:39.920Z,101040.38
2022-08-14T09:00:29.476Z,101029.69
2022-08-14T09:03:02.084Z,101028.72
2022-08-14T09:05:32.875Z,101023.88
2022-08-14T09:08:31.876Z,101025.06
2022-08-14T09:11:18.427Z,101019.47
2022-08-14T09:13:54.205Z,101032.72
2022-08-14T09:16:25.977Z,101021.47
2022-08-14T09:18:56.455Z,101023.84
2022-08-14T09:21:31.697Z,101017.38
2022-08-14T09:24:28.119Z,101020.03
2022-08-14T09:26:53.136Z,101014.75
2022-08-14T09:29:28.813Z,101016.09
2022-08-14T09:32:02.392Z,101009.34
2022-08-14T09:34:50.933Z,101011.56
2022-08-14T09:37:41.057Z,101006.47
2022-08-14T09:40:21.752Z,100996.38
2022-08-14T09:43:00.224Z,100995.47
2022-08-14T09:45:53.232Z,101003.22
2022-08-14T09:48:29.905Z,100998.19
2022-08-14T09:54:12.999Z,100990.28
2022-08-14T09:56:32.931Z,100988.38
2022-08-14T09:59:16.706Z,100981.34
2022-08-14T10:01:52.762Z,100972.22
2022-08-14T10:04:34.711Z,100978.63
2022-08-14T10:07:05.380Z,100971.19
2022-08-14T10:09:35.486Z,100962.22
2022-08-14T10:12:18.649Z,100957.53
2022-08-14T10:14:53.456Z,100954.97
2022-08-14T10:17:38.439Z,100952.09
2022-08-14T10:20:40.827Z,100942.88
2022-08-14T10:23:16.275Z,100939.84
2022-08-14T10:25:50.849Z,100934.22
2022-08-14T10:29:03.911Z,100933.19
2022-08-14T10:31:25.325Z,100934.97
2022-08-14T10:34:13.445Z,100931.91
2022-08-14T10:36:49.830Z,100932.06
2022-08-14T10:39:26.073Z,100923.75
2022-08-14T10:42:10.458Z,100921.56
2022-08-14T10:44:52.333Z,100921.72
2022-08-14T10:47:41.118Z,100911.63
2022-08-14T10:50:15.368Z,100907.78
2022-08-14T10:52:47.356Z,100901.56
2022-08-14T10:55:21.032Z,100900.50
2022-08-14T10:57:53.358Z,100907.44
2022-08-14T11:00:30.132Z,100900.91
2022-08-14T11:03:09.571Z,100900.03
2022-08-14T11:05:48.988Z,100896.75
2022-08-14T11:08:34.858Z,100888.06
2022-08-14T11:11:07.321Z,100891.19
2022-08-14T11:13:38.913Z,100882.53
2022-08-14T11:16:09.833Z,100880.19
2022-08-14T11:18:40.863Z,100872.44
2022-08-14T11:21:18.392Z,100871.81
2022-08-14T11:23:53.724Z,100857.50
2022-08-14T11:26:30.148Z,100867.63
2022-08-14T11:29:03.616Z,100874.50
2022-08-14T11:31:38.962Z,100860.38
2022-08-14T11:34:29.828Z,100862.78
2022-08-14T11:37:23.654Z,100857.84
2022-08-14T11:40:01.124Z,100852.22
2022-08-14T11:42:57.998Z,100848.56
2022-08-14T11:45:23.455Z,100853.03
2022-08-14T11:48:10.689Z,100855.69
2022-08-14T11:50:43.459Z,100853.13
2022-08-14T11:53:26.007Z,100843.94
2022-08-14T11:56:05.485Z,100845.44
2022-08-14T11:58:38.695Z,100845.63
2022-08-14T12:01:11.164Z,100837.78
2022-08-14T12:03:52.343Z,100835.22
2022-08-14T12:06:28.744Z,100820.84
2022-08-14T12:09:14.973Z,100829.63
2022-08-14T12:11:47.454Z,100831.22
2022-08-14T12:14:31.157Z,100814.75
2022-08-14T12:17:09.490Z,100810.00
2022-08-14T12:19:50.686Z,100813.44
2022-08-14T12:22:36.173Z,100803.69
2022-08-14T12:25:12.445Z,100809.66
2022-08-14T12:27:53.694Z,100809.16
2022-08-14T12:30:39.518Z,100806.03
2022-08-14T12:33:31.182Z,100799.31
2022-08-14T12:36:06.063Z,100810.13
2022-08-14T12:38:38.891Z,100800.94
2022-08-14T12:41:21.383Z,100793.16
2022-08-14T12:43:55.581Z,100784.53
2022-08-14T12:46:31.035Z,100774.03
2022-08-14T12:49:06.447Z,100781.63
2022-08-14T12:51:36.283Z,100777.66
2022-08-14T12:54:18.610Z,100772.22
2022-08-14T12:57:12.654Z,100772.84
2022-08-14T12:59:49.513Z,100768.63
2022-08-14T13:02:29.651Z,100765.19
2022-08-14T13:04:59.589Z,100751.44
2022-08-14T13:07:32.587Z,100759.09
2022-08-14T13:10:45.795Z,100753.47
2022-08-14T13:13:16.112Z,100748.22
2022-08-14T13:15:48.023Z,100761.09
2022-08-14T13:18:28.839Z,100761.09
2022-08-14T13:21:02.299Z,100763.91
2022-08-14T13:23:37.410Z,100752.06
2022-08-14T13:26:10.149Z,100746.38
2022-08-14T13:29:02.551Z,100747.50
2022-08-14T13:31:37.157Z,100734.81
2022-08-14T13:34:07.651Z,100735.41
2022-08-14T13:36:54.709Z,100738.47
2022-08-14T13:39:29.824Z,100735.25
2022-08-14T13:42:10.929Z,100727.81
2022-08-14T13:44:47.858Z,100726.75
2022-08-14T13:47:20.196Z,100725.72
2022-08-14T13:49:57.454Z,100720.00
2022-08-14T13:52:51.500Z,100709.13
2022-08-14T13:55:23.891Z,100709.25
2022-08-14T13:58:04.294Z,100705.69
2022-08-14T14:00:52.970Z,100694.47
2022-08-14T14:03:30.427Z,100685.44
2022-08-14T14:06:03.005Z,100688.88
2022-08-14T14:08:43.646Z,100685.09
2022-08-14T14:11:19.840Z,100685.09
2022-08-14T14:13:51.152Z,100675.34
2022-08-14T14:16:30.835Z,100676.59
2022-08-14T14:19:09.514Z,100668.31
2022-08-14T14:21:42.065Z,100674.91
2022-08-14T14:24:17.183Z,100664.81
2022-08-14T14:26:50.198Z,100664.72
2022-08-14T14:29:23.954Z,100667.28
2022-08-14T14:32:00.900Z,100660.97
2022-08-14T14:34:33.460Z,100653.06
2022-08-14T14:37:06.181Z,100652.88
2022-08-14T14:40:50.790Z,100647.19
2022-08-14T14:42:31.989Z,100649.63
2022-08-14T14:45:16.057Z,100648.59
2022-08-14T14:47:51.705Z,100649.56
2022-08-14T14:50:29.720Z,100644.28
2022-08-14T14:53:13.225Z,100635.34
2022-08-14T14:56:47.447Z,100633.41
2022-08-14T14:58:35.344Z,100623.88
2022-08-14T15:01:08.730Z,100626.94
2022-08-14T15:03:45.685Z,100626.50
2022-08-14T15:06:17.642Z,100616.59
2022-08-14T15:08:55.516Z,100627.47
2022-08-14T15:11:30.149Z,100620.34
2022-08-14T15:14:00.467Z,100619.84
2022-08-14T15:16:30.350Z,100615.72
2022-08-14T15:19:02.648Z,100624.06
2022-08-14T15:21:32.426Z,100616.06
2022-08-14T15:24:03.319Z,100613.66
2022-08-14T15:26:35.676Z,100613.84
2022-08-14T15:29:08.522Z,100606.94
2022-08-14T15:31:39.793Z,100606.03
2022-08-14T15:34:43.101Z,100607.81
2022-08-14T15:37:06.032Z,100614.28
2022-08-14T15:39:38.189Z,100616.03
2022-08-14T15:42:16.280Z,100613.56
2022-08-14T15:44:56.771Z,100608.47
2022-08-14T15:47:29.769Z,100593.94
2022-08-14T15:50:04.973Z,100600.25
2022-08-14T15:52:37.308Z,100592.44
2022-08-14T15:55:13.073Z,100601.72
2022-08-14T15:57:51.729Z,100599.97
2022-08-14T16:00:49.828Z,100597.31
2022-08-14T16:03:27.080Z,100596.44
2022-08-14T16:06:10.612Z,100589.97
2022-08-14T16:08:41.456Z,100584.38
2022-08-14T16:11:13.171Z,100589.66
2022-08-14T16:13:47.658Z,100581.50
2022-08-14T16:16:34.524Z,100579.66
2022-08-14T16:19:12.751Z,100589.66
2022-08-14T16:22:01.659Z,100583.25
2022-08-14T16:27:34.305Z,100572.88
2022-08-14T16:30:24.542Z,100571.84
2022-08-14T16:32:59.303Z,100571.75
2022-08-14T16:35:43.160Z,100558.97
2022-08-14T16:38:47.783Z,100557.84
2022-08-14T16:40:24.278Z,100576.41
2022-08-14T16:41:27.306Z,100561.50
2022-08-14T16:44:01.429Z,100566.88
2022-08-14T16:46:34.935Z,100567.75
2022-08-14T16:49:07.191Z,100560.81
2022-08-14T16:51:39.139Z,100562.94
2022-08-14T16:54:34.515Z,100562.19
2022-08-14T16:57:19.794Z,100558.88
2022-08-14T16:59:52.739Z,100550.97
2022-08-14T17:02:37.061Z,100546.59
2022-08-14T17:05:20.872Z,100543.81
2022-08-14T17:08:32.613Z,100537.31
2022-08-14T17:11:10.581Z,100530.16
2022-08-14T17:13:58.829Z,100532.75
2022-08-14T17:16:37.077Z,100531.97
2022-08-14T17:19:13.489Z,100531.09
2022-08-14T17:21:47.819Z,100531.19
2022-08-14T17:24:56.308Z,100530.28
2022-08-14T17:27:18.311Z,100524.19
2022-08-14T17:29:56.348Z,100522.50
2022-08-14T17:35:38.960Z,100518.16
2022-08-14T17:38:33.626Z,100527.47
2022-08-14T17:41:27.294Z,100523.66
2022-08-14T17:44:21.932Z,100520.22
2022-08-14T17:47:04.572Z,100517.53
2022-08-14T17:49:40.585Z,100520.03
2022-08-14T17:52:16.950Z,100514.44
2022-08-14T17:54:52.690Z,100524.28
2022-08-14T17:57:30.409Z,100525.94
2022-08-14T18:00:10.806Z,100522.19
2022-08-14T18:02:51.128Z,100520.41
2022-08-14T18:06:08.616Z,100519.41
2022-08-14T18:08:32.342Z,100518.28
2022-08-14T18:11:03.321Z,100523.41
2022-08-14T18:13:50.385Z,100525.97
2022-08-14T18:16:30.388Z,100524.16
2022-08-14T18:19:02.715Z,100523.88
2022-08-14T18:21:56.528Z,100525.25
2022-08-14T18:24:29.327Z,100524.91
2022-08-14T18:27:15.032Z,100534.50
2022-08-14T18:29:54.471Z,100526.25
2022-08-14T18:32:55.067Z,100526.69
2022-08-14T18:35:45.957Z,100535.16
2022-08-14T18:38:45.953Z,100522.84
2022-08-14T18:41:36.628Z,100526.75
2022-08-14T18:44:10.900Z,100522.56
2022-08-14T18:47:16.027Z,100526.28
2022-08-14T18:50:26.134Z,100529.84
2022-08-14T18:53:09.057Z,100523.69
2022-08-14T18:55:54.295Z,100522.94
2022-08-14T18:58:31.704Z,100522.25
2022-08-14T19:01:06.081Z,100515.19
2022-08-14T19:03:58.180Z,100516.19
2022-08-14T19:06:56.384Z,100517.31
2022-08-14T19:09:54.275Z,100521.97
2022-08-14T19:12:56.757Z,100517.59
2022-08-14T19:15:29.243Z,100522.25
2022-08-14T19:18:10.736Z,100522.31
2022-08-14T19:20:52.986Z,100516.28
2022-08-14T19:23:42.824Z,100516.53
2022-08-14T19:26:36.415Z,100518.66
2022-08-14T19:29:26.412Z,100516.16
2022-08-14T19:32:26.349Z,100514.53
2022-08-14T19:35:00.015Z,100519.97
2022-08-14T19:37:52.105Z,100518.13
2022-08-14T19:40:35.403Z,100513.72
2022-08-14T19:43:08.915Z,100514.75
2022-08-14T19:45:40.233Z,100515.75
2022-08-14T19:48:18.764Z,100506.78
2022-08-14T19:50:48.947Z,100514.06
2022-08-14T19:53:19.842Z,100514.94
2022-08-14T19:56:02.621Z,100514.06
2022-08-14T19:58:54.680Z,100506.09
2022-08-14T20:01:37.116Z,100506.22
2022-08-14T20:04:46.212Z,100509.03
2022-08-14T20:07:01.710Z,100513.56
2022-08-14T20:11:06.792Z,100507.22
2022-08-14T20:12:36.690Z,100509.22
2022-08-14T20:15:46.834Z,100502.28
2022-08-14T20:18:45.930Z,100500.66
2022-08-14T20:21:07.770Z,100500.75
2022-08-14T20:23:38.936Z,100500.00
2022-08-14T20:26:32.017Z,100499.94
2022-08-14T20:29:07.045Z,100501.81
2022-08-14T20:31:38.344Z,100503.81
2022-08-14T20:34:18.863Z,100508.47
2022-08-14T20:37:04.383Z,100506.81
2022-08-14T20:39:36.122Z,100506.94
2022-08-14T20:42:25.429Z,100510.53
2022-08-14T20:45:14.136Z,100509.50
2022-08-14T20:47:50.672Z,100508.56
2022-08-14T20:50:28.553Z,100528.97
2022-08-14T20:53:00.316Z,100525.13
2022-08-14T20:55:33.359Z,100514.13
2022-08-14T20:58:09.969Z,100512.06
2022-08-14T21:01:00.760Z,100512.63
2022-08-14T21:03:56.356Z,100506.09
2022-08-14T21:06:29.895Z,100502.34
2022-08-14T21:09:19.772Z,100495.97
2022-08-14T21:12:33.980Z,100484.97
2022-08-14T21:14:59.942Z,100487.56
2022-08-14T21:17:30.584Z,100489.31
2022-08-14T21:20:21.387Z,100491.06
2022-08-14T21:22:53.339Z,100491.88
2022-08-14T21:25:26.426Z,100490.97
2022-08-14T21:28:01.916Z,100490.88
2022-08-14T21:30:47.070Z,100485.50
2022-08-14T21:33:21.976Z,100486.38
2022-08-14T21:35:56.240Z,100480.97
2022-08-14T21:38:34.116Z,100484.75
2022-08-14T21:41:41.568Z,100480.47
2022-08-14T21:44:17.170Z,100483.47
2022-08-14T21:46:53.557Z,100482.91
2022-08-14T21:49:37.429Z,100478.84
2022-08-14T21:52:49.815Z,100474.03
2022-08-14T21:55:09.351Z,100471.66
2022-08-14T21:58:04.143Z,100474.34
2022-08-14T22:00:39.704Z,100465.56
2022-08-14T22:03:17.423Z,100469.13
2022-08-14T22:05:49.592Z,100468.13
2022-08-14T22:08:26.876Z,100461.75
2022-08-14T22:10:59.190Z,100463.47
2022-08-14T22:13:32.135Z,100460.72
2022-08-14T22:16:03.605Z,100442.69
2022-08-14T22:18:34.116Z,100453.47
2022-08-14T22:21:08.196Z,100439.03
2022-08-14T22:23:50.280Z,100439.03
2022-08-14T22:26:22.335Z,100440.84
2022-08-14T22:29:00.569Z,100432.84
2022-08-14T22:31:35.250Z,100440.97
2022-08-14T22:34:09.255Z,100438.41
2022-08-14T22:36:51.096Z,100437.56
2022-08-14T22:40:17.689Z,100442.13
2022-08-14T22:42:21.353Z,100439.56
2022-08-14T22:44:56.827Z,100444.13
2022-08-14T22:47:40.496Z,100442.38
2022-08-14T22:50:29.128Z,100437.97
2022-08-14T22:53:02.705Z,100440.75
2022-08-14T22:55:36.634Z,100430.94
2022-08-14T22:58:06.979Z,100425.72
2022-08-14T23:00:37.701Z,100425.78
2022-08-14T23:03:17.363Z,100429.41
2022-08-14T23:05:51.757Z,100425.00
2022-08-14T23:09:02.245Z,100427.81
2022-08-14T23:11:15.509Z,100418.88
2022-08-14T23:13:46.795Z,100421.69
2022-08-14T23:16:19.579Z,100417.31
2022-08-14T23:18:53.923Z,100413.88
2022-08-14T23:21:25.323Z,100431.03
2022-08-14T23:24:00.866Z,100417.75
2022-08-14T23:26:49.807Z,100415.28
2022-08-14T23:29:25.014Z,100425.34
2022-08-14T23:31:56.076Z,100412.00
2022-08-14T23:34:29.778Z,100415.59
2022-08-14T23:37:03.961Z,100404.00
2022-08-14T23:39:35.621Z,100407.75
2022-08-14T23:42:12.567Z,100401.53
2022-08-14T23:44:49.078Z,100400.66
2022-08-14T23:47:26.682Z,100397.09
2022-08-14T23:50:03.465Z,100390.75
2022-08-14T23:53:06.123Z,100396.16
2022-08-14T23:55:32.600Z,100383.63
2022-08-14T23:58:04.938Z,100389.03
